sensor_id;sensor_type;location;lat;lon;timestamp;P1;durP1;ratioP1;P2;durP2;ratioP2
65328;SDS011;51941;52.210;5.158;2022-07-29T00:01:56;2.60;;;1.02;;
65328;SDS011;51941;52.210;5.158;2022-07-29T00:04:22;1.48;;;0.93;;
65328;SDS011;51941;52.210;5.158;2022-07-29T00:06:49;2.35;;;0.90;;
65328;SDS011;51941;52.210;5.158;2022-07-29T00:09:16;3.72;;;1.23;;
65328;SDS011;51941;52.210;5.158;2022-07-29T00:11:43;2.58;;;1.00;;
65328;SDS011;51941;52.210;5.158;2022-07-29T00:14:11;2.05;;;0.90;;
65328;SDS011;51941;52.210;5.158;2022-07-29T00:16:38;2.75;;;0.90;;
65328;SDS011;51941;52.210;5.158;2022-07-29T00:19:05;3.58;;;0.80;;
65328;SDS011;51941;52.210;5.158;2022-07-29T00:21:32;2.95;;;0.88;;
65328;SDS011;51941;52.210;5.158;2022-07-29T00:23:59;3.40;;;0.93;;
65328;SDS011;51941;52.210;5.158;2022-07-29T00:26:26;1.73;;;0.85;;
65328;SDS011;51941;52.210;5.158;2022-07-29T00:28:57;1.80;;;0.75;;
65328;SDS011;51941;52.210;5.158;2022-07-29T00:31:26;2.75;;;0.90;;
65328;SDS011;51941;52.210;5.158;2022-07-29T00:33:53;2.95;;;1.00;;
65328;SDS011;51941;52.210;5.158;2022-07-29T00:36:21;5.35;;;1.30;;
65328;SDS011;51941;52.210;5.158;2022-07-29T00:38:47;1.80;;;1.00;;
65328;SDS011;51941;52.210;5.158;2022-07-29T00:41:13;2.65;;;1.10;;
65328;SDS011;51941;52.210;5.158;2022-07-29T00:43:41;2.47;;;1.05;;
65328;SDS011;51941;52.210;5.158;2022-07-29T00:46:08;3.70;;;1.40;;
65328;SDS011;51941;52.210;5.158;2022-07-29T00:48:37;3.97;;;1.35;;
65328;SDS011;51941;52.210;5.158;2022-07-29T00:51:05;4.70;;;1.00;;
65328;SDS011;51941;52.210;5.158;2022-07-29T00:53:32;5.45;;;1.02;;
65328;SDS011;51941;52.210;5.158;2022-07-29T00:56:00;1.30;;;0.82;;
65328;SDS011;51941;52.210;5.158;2022-07-29T00:58:27;3.45;;;1.08;;
65328;SDS011;51941;52.210;5.158;2022-07-29T01:00:54;1.42;;;1.00;;
65328;SDS011;51941;52.210;5.158;2022-07-29T01:03:20;2.92;;;1.10;;
65328;SDS011;51941;52.210;5.158;2022-07-29T01:05:49;2.83;;;0.93;;
65328;SDS011;51941;52.210;5.158;2022-07-29T01:08:17;5.28;;;1.00;;
65328;SDS011;51941;52.210;5.158;2022-07-29T01:10:45;1.58;;;1.02;;
65328;SDS011;51941;52.210;5.158;2022-07-29T01:13:12;2.25;;;0.85;;
65328;SDS011;51941;52.210;5.158;2022-07-29T01:15:43;4.93;;;1.08;;
65328;SDS011;51941;52.210;5.158;2022-07-29T01:18:14;2.80;;;0.80;;
65328;SDS011;51941;52.210;5.158;2022-07-29T01:20:51;2.50;;;0.90;;
65328;SDS011;51941;52.210;5.158;2022-07-29T01:26:37;3.40;;;1.00;;
65328;SDS011;51941;52.210;5.158;2022-07-29T01:31:57;3.33;;;1.20;;
65328;SDS011;51941;52.210;5.158;2022-07-29T01:34:31;1.88;;;0.90;;
65328;SDS011;51941;52.210;5.158;2022-07-29T01:37:08;1.95;;;1.10;;
65328;SDS011;51941;52.210;5.158;2022-07-29T01:39:41;2.55;;;1.08;;
65328;SDS011;51941;52.210;5.158;2022-07-29T01:42:14;4.35;;;1.58;;
65328;SDS011;51941;52.210;5.158;2022-07-29T01:44:50;7.07;;;1.65;;
65328;SDS011;51941;52.210;5.158;2022-07-29T01:47:25;2.78;;;1.08;;
65328;SDS011;51941;52.210;5.158;2022-07-29T01:49:58;1.67;;;1.02;;
65328;SDS011;51941;52.210;5.158;2022-07-29T01:52:33;4.32;;;1.42;;
65328;SDS011;51941;52.210;5.158;2022-07-29T01:55:05;1.60;;;1.10;;
65328;SDS011;51941;52.210;5.158;2022-07-29T01:57:36;1.63;;;0.73;;
65328;SDS011;51941;52.210;5.158;2022-07-29T02:02:37;2.38;;;1.10;;
65328;SDS011;51941;52.210;5.158;2022-07-29T02:05:08;3.15;;;1.30;;
65328;SDS011;51941;52.210;5.158;2022-07-29T02:07:38;5.00;;;1.17;;
65328;SDS011;51941;52.210;5.158;2022-07-29T02:10:07;1.55;;;1.20;;
65328;SDS011;51941;52.210;5.158;2022-07-29T02:12:36;5.77;;;1.60;;
65328;SDS011;51941;52.210;5.158;2022-07-29T02:15:04;3.67;;;1.15;;
65328;SDS011;51941;52.210;5.158;2022-07-29T02:17:35;2.08;;;1.10;;
65328;SDS011;51941;52.210;5.158;2022-07-29T02:20:07;2.28;;;1.42;;
65328;SDS011;51941;52.210;5.158;2022-07-29T02:22:37;2.28;;;1.40;;
65328;SDS011;51941;52.210;5.158;2022-07-29T02:27:35;2.03;;;1.05;;
65328;SDS011;51941;52.210;5.158;2022-07-29T02:30:11;5.13;;;1.70;;
65328;SDS011;51941;52.210;5.158;2022-07-29T02:32:41;2.88;;;1.50;;
65328;SDS011;51941;52.210;5.158;2022-07-29T02:35:18;4.40;;;1.23;;
65328;SDS011;51941;52.210;5.158;2022-07-29T02:37:52;3.25;;;1.17;;
65328;SDS011;51941;52.210;5.158;2022-07-29T02:40:34;2.85;;;1.25;;
65328;SDS011;51941;52.210;5.158;2022-07-29T02:43:05;4.70;;;1.50;;
65328;SDS011;51941;52.210;5.158;2022-07-29T02:45:36;2.75;;;1.58;;
65328;SDS011;51941;52.210;5.158;2022-07-29T02:48:05;2.47;;;1.33;;
65328;SDS011;51941;52.210;5.158;2022-07-29T02:50:37;4.05;;;1.25;;
65328;SDS011;51941;52.210;5.158;2022-07-29T02:53:12;1.95;;;0.93;;
65328;SDS011;51941;52.210;5.158;2022-07-29T02:55:48;4.90;;;1.52;;
65328;SDS011;51941;52.210;5.158;2022-07-29T02:58:23;4.03;;;1.50;;
65328;SDS011;51941;52.210;5.158;2022-07-29T03:00:55;4.30;;;1.42;;
65328;SDS011;51941;52.210;5.158;2022-07-29T03:03:24;2.53;;;1.20;;
65328;SDS011;51941;52.210;5.158;2022-07-29T03:05:56;4.03;;;1.50;;
65328;SDS011;51941;52.210;5.158;2022-07-29T03:08:24;3.20;;;1.40;;
65328;SDS011;51941;52.210;5.158;2022-07-29T03:10:53;4.90;;;1.60;;
65328;SDS011;51941;52.210;5.158;2022-07-29T03:13:20;3.20;;;1.35;;
65328;SDS011;51941;52.210;5.158;2022-07-29T03:15:48;3.28;;;1.40;;
65328;SDS011;51941;52.210;5.158;2022-07-29T03:18:17;2.10;;;1.30;;
65328;SDS011;51941;52.210;5.158;2022-07-29T03:20:44;2.33;;;1.00;;
65328;SDS011;51941;52.210;5.158;2022-07-29T03:23:12;3.33;;;1.38;;
65328;SDS011;51941;52.210;5.158;2022-07-29T03:25:55;2.03;;;1.10;;
65328;SDS011;51941;52.210;5.158;2022-07-29T03:28:22;2.50;;;1.15;;
65328;SDS011;51941;52.210;5.158;2022-07-29T03:30:50;2.95;;;1.40;;
65328;SDS011;51941;52.210;5.158;2022-07-29T03:33:18;1.67;;;0.82;;
65328;SDS011;51941;52.210;5.158;2022-07-29T03:35:45;2.25;;;1.10;;
65328;SDS011;51941;52.210;5.158;2022-07-29T03:38:12;3.38;;;1.35;;
65328;SDS011;51941;52.210;5.158;2022-07-29T03:40:40;1.83;;;1.15;;
65328;SDS011;51941;52.210;5.158;2022-07-29T03:43:13;2.72;;;1.17;;
65328;SDS011;51941;52.210;5.158;2022-07-29T03:45:44;2.38;;;1.00;;
65328;SDS011;51941;52.210;5.158;2022-07-29T03:48:14;7.90;;;1.42;;
65328;SDS011;51941;52.210;5.158;2022-07-29T03:50:45;2.28;;;1.30;;
65328;SDS011;51941;52.210;5.158;2022-07-29T03:53:12;3.70;;;1.60;;
65328;SDS011;51941;52.210;5.158;2022-07-29T03:55:41;2.83;;;1.35;;
65328;SDS011;51941;52.210;5.158;2022-07-29T04:00:37;2.03;;;1.27;;
65328;SDS011;51941;52.210;5.158;2022-07-29T04:03:04;2.20;;;1.20;;
65328;SDS011;51941;52.210;5.158;2022-07-29T04:05:32;1.23;;;1.10;;
65328;SDS011;51941;52.210;5.158;2022-07-29T04:08:00;2.47;;;1.30;;
65328;SDS011;51941;52.210;5.158;2022-07-29T04:10:27;4.00;;;1.52;;
65328;SDS011;51941;52.210;5.158;2022-07-29T04:12:54;2.38;;;1.33;;
65328;SDS011;51941;52.210;5.158;2022-07-29T04:15:21;3.63;;;1.35;;
65328;SDS011;51941;52.210;5.158;2022-07-29T04:17:48;2.28;;;1.13;;
65328;SDS011;51941;52.210;5.158;2022-07-29T04:20:15;2.55;;;1.23;;
65328;SDS011;51941;52.210;5.158;2022-07-29T04:22:42;2.35;;;1.55;;
65328;SDS011;51941;52.210;5.158;2022-07-29T04:25:11;2.58;;;1.50;;
65328;SDS011;51941;52.210;5.158;2022-07-29T04:27:39;1.95;;;1.15;;
65328;SDS011;51941;52.210;5.158;2022-07-29T04:30:25;3.15;;;1.30;;
65328;SDS011;51941;52.210;5.158;2022-07-29T04:32:52;3.33;;;1.33;;
65328;SDS011;51941;52.210;5.158;2022-07-29T04:35:19;7.32;;;1.80;;
65328;SDS011;51941;52.210;5.158;2022-07-29T04:37:46;4.05;;;1.35;;
65328;SDS011;51941;52.210;5.158;2022-07-29T04:40:15;3.13;;;1.35;;
65328;SDS011;51941;52.210;5.158;2022-07-29T04:42:42;3.20;;;1.38;;
65328;SDS011;51941;52.210;5.158;2022-07-29T04:45:08;3.15;;;1.60;;
65328;SDS011;51941;52.210;5.158;2022-07-29T04:47:35;3.30;;;1.23;;
65328;SDS011;51941;52.210;5.158;2022-07-29T04:50:06;3.58;;;1.60;;
65328;SDS011;51941;52.210;5.158;2022-07-29T04:52:40;4.45;;;1.40;;
65328;SDS011;51941;52.210;5.158;2022-07-29T04:55:07;2.50;;;1.40;;
65328;SDS011;51941;52.210;5.158;2022-07-29T04:57:36;3.03;;;1.33;;
65328;SDS011;51941;52.210;5.158;2022-07-29T05:00:03;2.85;;;1.30;;
65328;SDS011;51941;52.210;5.158;2022-07-29T05:02:30;5.00;;;1.60;;
65328;SDS011;51941;52.210;5.158;2022-07-29T05:04:57;3.38;;;1.30;;
65328;SDS011;51941;52.210;5.158;2022-07-29T05:07:24;2.75;;;1.40;;
65328;SDS011;51941;52.210;5.158;2022-07-29T05:09:51;2.45;;;1.35;;
65328;SDS011;51941;52.210;5.158;2022-07-29T05:12:19;2.13;;;1.42;;
65328;SDS011;51941;52.210;5.158;2022-07-29T05:14:47;2.85;;;1.10;;
65328;SDS011;51941;52.210;5.158;2022-07-29T05:17:14;2.78;;;1.25;;
65328;SDS011;51941;52.210;5.158;2022-07-29T05:19:41;3.33;;;1.80;;
65328;SDS011;51941;52.210;5.158;2022-07-29T05:22:07;5.88;;;1.60;;
65328;SDS011;51941;52.210;5.158;2022-07-29T05:24:34;2.22;;;1.27;;
65328;SDS011;51941;52.210;5.158;2022-07-29T05:27:01;1.88;;;1.10;;
65328;SDS011;51941;52.210;5.158;2022-07-29T05:29:28;2.20;;;1.23;;
65328;SDS011;51941;52.210;5.158;2022-07-29T05:31:57;6.25;;;1.63;;
65328;SDS011;51941;52.210;5.158;2022-07-29T05:34:24;4.23;;;2.03;;
65328;SDS011;51941;52.210;5.158;2022-07-29T05:36:51;4.82;;;1.90;;
65328;SDS011;51941;52.210;5.158;2022-07-29T05:39:18;2.63;;;1.60;;
65328;SDS011;51941;52.210;5.158;2022-07-29T05:41:45;6.60;;;1.95;;
65328;SDS011;51941;52.210;5.158;2022-07-29T05:44:14;3.00;;;1.58;;
65328;SDS011;51941;52.210;5.158;2022-07-29T05:46:42;5.57;;;1.65;;
65328;SDS011;51941;52.210;5.158;2022-07-29T05:49:10;2.58;;;1.42;;
65328;SDS011;51941;52.210;5.158;2022-07-29T05:51:37;3.65;;;1.77;;
65328;SDS011;51941;52.210;5.158;2022-07-29T05:54:04;3.85;;;1.50;;
65328;SDS011;51941;52.210;5.158;2022-07-29T05:56:32;2.03;;;1.45;;
65328;SDS011;51941;52.210;5.158;2022-07-29T05:58:59;2.00;;;1.35;;
65328;SDS011;51941;52.210;5.158;2022-07-29T06:01:26;3.72;;;1.48;;
65328;SDS011;51941;52.210;5.158;2022-07-29T06:03:53;3.65;;;1.50;;
65328;SDS011;51941;52.210;5.158;2022-07-29T06:06:21;4.22;;;1.70;;
65328;SDS011;51941;52.210;5.158;2022-07-29T06:08:50;2.75;;;1.45;;
65328;SDS011;51941;52.210;5.158;2022-07-29T06:11:17;3.28;;;1.50;;
65328;SDS011;51941;52.210;5.158;2022-07-29T06:13:44;2.75;;;1.30;;
65328;SDS011;51941;52.210;5.158;2022-07-29T06:16:11;2.40;;;1.25;;
65328;SDS011;51941;52.210;5.158;2022-07-29T06:18:39;3.42;;;1.35;;
65328;SDS011;51941;52.210;5.158;2022-07-29T06:21:09;4.10;;;1.38;;
65328;SDS011;51941;52.210;5.158;2022-07-29T06:23:38;5.80;;;2.22;;
65328;SDS011;51941;52.210;5.158;2022-07-29T06:26:05;2.53;;;1.30;;
65328;SDS011;51941;52.210;5.158;2022-07-29T06:28:34;3.33;;;1.60;;
65328;SDS011;51941;52.210;5.158;2022-07-29T06:31:01;1.23;;;1.10;;
65328;SDS011;51941;52.210;5.158;2022-07-29T06:33:28;3.53;;;1.00;;
65328;SDS011;51941;52.210;5.158;2022-07-29T06:36:00;3.90;;;1.60;;
65328;SDS011;51941;52.210;5.158;2022-07-29T06:38:30;3.60;;;1.13;;
65328;SDS011;51941;52.210;5.158;2022-07-29T06:40:59;4.13;;;1.48;;
65328;SDS011;51941;52.210;5.158;2022-07-29T06:51:26;4.85;;;1.42;;
65328;SDS011;51941;52.210;5.158;2022-07-29T06:57:12;4.32;;;1.15;;
65328;SDS011;51941;52.210;5.158;2022-07-29T07:00:09;2.40;;;1.23;;
65328;SDS011;51941;52.210;5.158;2022-07-29T07:03:16;4.43;;;1.70;;
65328;SDS011;51941;52.210;5.158;2022-07-29T07:05:49;4.73;;;1.30;;
65328;SDS011;51941;52.210;5.158;2022-07-29T07:08:21;2.65;;;1.65;;
65328;SDS011;51941;52.210;5.158;2022-07-29T07:14:07;2.78;;;1.40;;
65328;SDS011;51941;52.210;5.158;2022-07-29T07:16:34;5.32;;;1.88;;
65328;SDS011;51941;52.210;5.158;2022-07-29T07:19:01;2.15;;;1.40;;
65328;SDS011;51941;52.210;5.158;2022-07-29T07:21:29;5.85;;;1.33;;
65328;SDS011;51941;52.210;5.158;2022-07-29T07:23:56;1.35;;;1.10;;
65328;SDS011;51941;52.210;5.158;2022-07-29T07:26:24;3.05;;;1.60;;
65328;SDS011;51941;52.210;5.158;2022-07-29T07:28:52;5.38;;;1.45;;
65328;SDS011;51941;52.210;5.158;2022-07-29T07:34:12;5.72;;;1.60;;
65328;SDS011;51941;52.210;5.158;2022-07-29T07:36:39;5.57;;;2.00;;
65328;SDS011;51941;52.210;5.158;2022-07-29T07:39:06;2.38;;;1.50;;
65328;SDS011;51941;52.210;5.158;2022-07-29T07:41:34;2.42;;;1.33;;
65328;SDS011;51941;52.210;5.158;2022-07-29T07:44:01;7.75;;;2.00;;
65328;SDS011;51941;52.210;5.158;2022-07-29T07:46:28;3.85;;;1.60;;
65328;SDS011;51941;52.210;5.158;2022-07-29T07:49:04;4.13;;;1.40;;
65328;SDS011;51941;52.210;5.158;2022-07-29T07:52:06;5.55;;;1.70;;
65328;SDS011;51941;52.210;5.158;2022-07-29T07:54:54;2.33;;;1.50;;
65328;SDS011;51941;52.210;5.158;2022-07-29T08:13:55;3.38;;;1.55;;
65328;SDS011;51941;52.210;5.158;2022-07-29T08:16:22;4.57;;;1.90;;
65328;SDS011;51941;52.210;5.158;2022-07-29T08:18:50;2.45;;;1.25;;
65328;SDS011;51941;52.210;5.158;2022-07-29T08:21:22;3.20;;;1.50;;
65328;SDS011;51941;52.210;5.158;2022-07-29T08:23:51;3.92;;;1.90;;
65328;SDS011;51941;52.210;5.158;2022-07-29T08:26:39;3.70;;;1.90;;
65328;SDS011;51941;52.210;5.158;2022-07-29T08:29:08;5.72;;;1.70;;
65328;SDS011;51941;52.210;5.158;2022-07-29T08:31:43;3.10;;;1.77;;
65328;SDS011;51941;52.210;5.158;2022-07-29T08:34:13;3.72;;;1.75;;
65328;SDS011;51941;52.210;5.158;2022-07-29T08:36:44;3.15;;;1.52;;
65328;SDS011;51941;52.210;5.158;2022-07-29T08:39:14;6.68;;;1.90;;
65328;SDS011;51941;52.210;5.158;2022-07-29T08:41:47;5.30;;;1.42;;
65328;SDS011;51941;52.210;5.158;2022-07-29T08:48:08;4.03;;;1.92;;
65328;SDS011;51941;52.210;5.158;2022-07-29T08:50:46;4.32;;;1.60;;
65328;SDS011;51941;52.210;5.158;2022-07-29T08:53:40;3.55;;;1.50;;
65328;SDS011;51941;52.210;5.158;2022-07-29T08:56:38;3.53;;;1.52;;
65328;SDS011;51941;52.210;5.158;2022-07-29T08:59:36;2.38;;;1.20;;
65328;SDS011;51941;52.210;5.158;2022-07-29T09:02:43;5.30;;;1.38;;
65328;SDS011;51941;52.210;5.158;2022-07-29T09:13:59;5.10;;;1.85;;
65328;SDS011;51941;52.210;5.158;2022-07-29T09:19:45;5.53;;;1.80;;
65328;SDS011;51941;52.210;5.158;2022-07-29T09:22:31;6.38;;;2.08;;
65328;SDS011;51941;52.210;5.158;2022-07-29T09:24:58;3.58;;;1.67;;
65328;SDS011;51941;52.210;5.158;2022-07-29T09:27:26;4.13;;;1.73;;
65328;SDS011;51941;52.210;5.158;2022-07-29T09:30:03;5.68;;;1.75;;
65328;SDS011;51941;52.210;5.158;2022-07-29T09:35:30;2.72;;;1.50;;
65328;SDS011;51941;52.210;5.158;2022-07-29T09:38:09;5.28;;;1.73;;
65328;SDS011;51941;52.210;5.158;2022-07-29T09:40:38;4.45;;;1.67;;
65328;SDS011;51941;52.210;5.158;2022-07-29T09:43:09;5.68;;;1.42;;
65328;SDS011;51941;52.210;5.158;2022-07-29T09:45:45;2.88;;;1.40;;
65328;SDS011;51941;52.210;5.158;2022-07-29T09:48:35;3.78;;;1.67;;
65328;SDS011;51941;52.210;5.158;2022-07-29T09:51:03;7.25;;;2.00;;
65328;SDS011;51941;52.210;5.158;2022-07-29T09:53:58;4.72;;;2.05;;
65328;SDS011;51941;52.210;5.158;2022-07-29T09:56:39;7.78;;;1.98;;
65328;SDS011;51941;52.210;5.158;2022-07-29T09:59:10;3.78;;;1.67;;
65328;SDS011;51941;52.210;5.158;2022-07-29T10:02:00;3.67;;;1.73;;
65328;SDS011;51941;52.210;5.158;2022-07-29T10:04:36;4.03;;;1.60;;
65328;SDS011;51941;52.210;5.158;2022-07-29T10:07:06;4.35;;;1.30;;
65328;SDS011;51941;52.210;5.158;2022-07-29T10:09:39;4.28;;;1.88;;
65328;SDS011;51941;52.210;5.158;2022-07-29T10:12:20;3.22;;;1.52;;
65328;SDS011;51941;52.210;5.158;2022-07-29T10:14:49;4.63;;;2.00;;
65328;SDS011;51941;52.210;5.158;2022-07-29T10:17:22;4.63;;;1.30;;
65328;SDS011;51941;52.210;5.158;2022-07-29T10:19:53;5.30;;;1.52;;
65328;SDS011;51941;52.210;5.158;2022-07-29T10:22:23;3.00;;;1.67;;
65328;SDS011;51941;52.210;5.158;2022-07-29T10:24:57;6.88;;;2.20;;
65328;SDS011;51941;52.210;5.158;2022-07-29T10:27:39;3.22;;;1.50;;
65328;SDS011;51941;52.210;5.158;2022-07-29T10:30:31;3.67;;;2.10;;
65328;SDS011;51941;52.210;5.158;2022-07-29T10:34:06;3.55;;;1.80;;
65328;SDS011;51941;52.210;5.158;2022-07-29T10:36:45;4.88;;;2.15;;
65328;SDS011;51941;52.210;5.158;2022-07-29T10:39:25;5.45;;;1.83;;
65328;SDS011;51941;52.210;5.158;2022-07-29T10:42:17;5.13;;;1.55;;
65328;SDS011;51941;52.210;5.158;2022-07-29T10:44:49;4.38;;;1.50;;
65328;SDS011;51941;52.210;5.158;2022-07-29T10:47:34;5.03;;;1.88;;
65328;SDS011;51941;52.210;5.158;2022-07-29T11:50:41;2.83;;;1.63;;
65328;SDS011;51941;52.210;5.158;2022-07-29T11:53:46;2.70;;;1.75;;
65328;SDS011;51941;52.210;5.158;2022-07-29T11:56:45;9.75;;;2.30;;
65328;SDS011;51941;52.210;5.158;2022-07-29T11:59:19;5.35;;;1.90;;
65328;SDS011;51941;52.210;5.158;2022-07-29T12:05:31;3.85;;;1.90;;
65328;SDS011;51941;52.210;5.158;2022-07-29T12:08:21;4.22;;;1.70;;
65328;SDS011;51941;52.210;5.158;2022-07-29T12:11:16;6.55;;;1.75;;
65328;SDS011;51941;52.210;5.158;2022-07-29T12:13:50;7.00;;;1.70;;
65328;SDS011;51941;52.210;5.158;2022-07-29T12:16:23;6.13;;;2.10;;
65328;SDS011;51941;52.210;5.158;2022-07-29T12:24:50;5.30;;;2.03;;
65328;SDS011;51941;52.210;5.158;2022-07-29T12:27:17;5.50;;;1.90;;
65328;SDS011;51941;52.210;5.158;2022-07-29T12:29:45;3.90;;;1.80;;
65328;SDS011;51941;52.210;5.158;2022-07-29T12:32:22;4.70;;;1.73;;
65328;SDS011;51941;52.210;5.158;2022-07-29T12:34:56;2.90;;;1.40;;
65328;SDS011;51941;52.210;5.158;2022-07-29T12:45:52;4.70;;;1.80;;
65328;SDS011;51941;52.210;5.158;2022-07-29T12:51:16;4.75;;;1.80;;
65328;SDS011;51941;52.210;5.158;2022-07-29T13:21:19;2.58;;;1.27;;
65328;SDS011;51941;52.210;5.158;2022-07-29T13:24:07;2.03;;;1.40;;
65328;SDS011;51941;52.210;5.158;2022-07-29T16:43:30;4.80;;;2.13;;
65328;SDS011;51941;52.210;5.158;2022-07-29T16:46:13;7.45;;;2.28;;
65328;SDS011;51941;52.210;5.158;2022-07-29T16:48:48;3.28;;;1.58;;
65328;SDS011;51941;52.210;5.158;2022-07-29T16:51:27;3.53;;;1.70;;
65328;SDS011;51941;52.210;5.158;2022-07-29T16:54:06;4.05;;;1.45;;
65328;SDS011;51941;52.210;5.158;2022-07-29T16:56:35;8.77;;;2.42;;
65328;SDS011;51941;52.210;5.158;2022-07-29T17:05:20;5.90;;;1.80;;
65328;SDS011;51941;52.210;5.158;2022-07-29T17:07:49;5.53;;;1.70;;
65328;SDS011;51941;52.210;5.158;2022-07-29T17:10:24;5.53;;;2.10;;
65328;SDS011;51941;52.210;5.158;2022-07-29T17:12:57;3.67;;;1.70;;
65328;SDS011;51941;52.210;5.158;2022-07-29T17:18:45;2.28;;;1.40;;
65328;SDS011;51941;52.210;5.158;2022-07-29T18:09:44;6.78;;;2.38;;
65328;SDS011;51941;52.210;5.158;2022-07-29T18:12:12;5.53;;;1.63;;
65328;SDS011;51941;52.210;5.158;2022-07-29T18:14:43;5.60;;;1.98;;
65328;SDS011;51941;52.210;5.158;2022-07-29T18:17:27;6.75;;;2.25;;
65328;SDS011;51941;52.210;5.158;2022-07-29T18:22:35;3.70;;;1.80;;
65328;SDS011;51941;52.210;5.158;2022-07-29T18:25:05;4.47;;;2.00;;
65328;SDS011;51941;52.210;5.158;2022-07-29T18:27:33;4.90;;;2.22;;
65328;SDS011;51941;52.210;5.158;2022-07-29T18:30:00;8.23;;;1.92;;
65328;SDS011;51941;52.210;5.158;2022-07-29T18:32:29;5.88;;;2.40;;
65328;SDS011;51941;52.210;5.158;2022-07-29T18:34:56;7.00;;;2.03;;
65328;SDS011;51941;52.210;5.158;2022-07-29T18:37:26;8.77;;;2.50;;
65328;SDS011;51941;52.210;5.158;2022-07-29T18:39:55;5.20;;;1.98;;
65328;SDS011;51941;52.210;5.158;2022-07-29T18:42:24;5.18;;;2.47;;
65328;SDS011;51941;52.210;5.158;2022-07-29T18:44:51;5.45;;;1.88;;
65328;SDS011;51941;52.210;5.158;2022-07-29T18:47:29;5.60;;;2.30;;
65328;SDS011;51941;52.210;5.158;2022-07-29T18:49:57;7.10;;;1.88;;
65328;SDS011;51941;52.210;5.158;2022-07-29T18:52:25;4.47;;;2.33;;
65328;SDS011;51941;52.210;5.158;2022-07-29T18:54:58;5.47;;;2.30;;
65328;SDS011;51941;52.210;5.158;2022-07-29T18:57:29;7.22;;;2.33;;
65328;SDS011;51941;52.210;5.158;2022-07-29T18:59:56;4.80;;;2.30;;
65328;SDS011;51941;52.210;5.158;2022-07-29T19:02:25;2.72;;;1.73;;
65328;SDS011;51941;52.210;5.158;2022-07-29T19:04:52;6.93;;;2.60;;
65328;SDS011;51941;52.210;5.158;2022-07-29T19:07:20;5.50;;;2.30;;
65328;SDS011;51941;52.210;5.158;2022-07-29T19:09:51;3.42;;;1.80;;
65328;SDS011;51941;52.210;5.158;2022-07-29T19:12:18;3.40;;;1.88;;
65328;SDS011;51941;52.210;5.158;2022-07-29T19:14:48;5.28;;;1.92;;
65328;SDS011;51941;52.210;5.158;2022-07-29T19:17:15;3.90;;;2.00;;
65328;SDS011;51941;52.210;5.158;2022-07-29T19:19:42;4.95;;;2.72;;
65328;SDS011;51941;52.210;5.158;2022-07-29T19:22:10;3.90;;;2.00;;
65328;SDS011;51941;52.210;5.158;2022-07-29T19:24:38;3.50;;;1.85;;
65328;SDS011;51941;52.210;5.158;2022-07-29T19:27:08;5.20;;;2.63;;
65328;SDS011;51941;52.210;5.158;2022-07-29T19:29:35;5.72;;;2.63;;
65328;SDS011;51941;52.210;5.158;2022-07-29T19:32:04;5.50;;;2.03;;
65328;SDS011;51941;52.210;5.158;2022-07-29T19:34:31;4.13;;;2.10;;
65328;SDS011;51941;52.210;5.158;2022-07-29T19:36:58;8.50;;;2.80;;
65328;SDS011;51941;52.210;5.158;2022-07-29T19:39:26;5.78;;;2.15;;
65328;SDS011;51941;52.210;5.158;2022-07-29T19:41:53;7.88;;;2.50;;
65328;SDS011;51941;52.210;5.158;2022-07-29T19:44:20;4.32;;;2.28;;
65328;SDS011;51941;52.210;5.158;2022-07-29T19:46:47;8.05;;;2.78;;
65328;SDS011;51941;52.210;5.158;2022-07-29T19:49:16;6.55;;;2.42;;
65328;SDS011;51941;52.210;5.158;2022-07-29T19:51:43;6.70;;;2.33;;
65328;SDS011;51941;52.210;5.158;2022-07-29T19:54:10;14.15;;;3.03;;
65328;SDS011;51941;52.210;5.158;2022-07-29T19:56:39;4.70;;;2.30;;
65328;SDS011;51941;52.210;5.158;2022-07-29T19:59:08;6.75;;;2.30;;
65328;SDS011;51941;52.210;5.158;2022-07-29T20:01:35;5.20;;;1.88;;
65328;SDS011;51941;52.210;5.158;2022-07-29T20:04:02;2.67;;;1.85;;
65328;SDS011;51941;52.210;5.158;2022-07-29T20:06:31;5.32;;;2.08;;
65328;SDS011;51941;52.210;5.158;2022-07-29T20:08:59;5.50;;;2.63;;
65328;SDS011;51941;52.210;5.158;2022-07-29T20:11:25;6.15;;;2.72;;
65328;SDS011;51941;52.210;5.158;2022-07-29T20:13:54;10.30;;;2.67;;
65328;SDS011;51941;52.210;5.158;2022-07-29T20:16:20;6.03;;;2.20;;
65328;SDS011;51941;52.210;5.158;2022-07-29T20:18:47;4.03;;;1.90;;
65328;SDS011;51941;52.210;5.158;2022-07-29T20:21:14;6.00;;;2.10;;
65328;SDS011;51941;52.210;5.158;2022-07-29T20:23:43;7.72;;;2.63;;
65328;SDS011;51941;52.210;5.158;2022-07-29T20:26:10;6.20;;;2.20;;
65328;SDS011;51941;52.210;5.158;2022-07-29T20:28:37;8.30;;;2.65;;
65328;SDS011;51941;52.210;5.158;2022-07-29T20:31:04;9.05;;;2.80;;
65328;SDS011;51941;52.210;5.158;2022-07-29T20:33:32;7.55;;;2.72;;
65328;SDS011;51941;52.210;5.158;2022-07-29T20:35:59;10.35;;;3.33;;
65328;SDS011;51941;52.210;5.158;2022-07-29T20:38:26;7.20;;;3.30;;
65328;SDS011;51941;52.210;5.158;2022-07-29T20:40:56;11.50;;;3.92;;
65328;SDS011;51941;52.210;5.158;2022-07-29T20:43:26;11.93;;;3.60;;
65328;SDS011;51941;52.210;5.158;2022-07-29T20:45:54;7.63;;;3.10;;
65328;SDS011;51941;52.210;5.158;2022-07-29T20:48:21;9.77;;;3.20;;
65328;SDS011;51941;52.210;5.158;2022-07-29T20:50:48;7.68;;;2.90;;
65328;SDS011;51941;52.210;5.158;2022-07-29T20:53:15;7.53;;;2.58;;
65328;SDS011;51941;52.210;5.158;2022-07-29T20:55:44;15.55;;;3.83;;
65328;SDS011;51941;52.210;5.158;2022-07-29T20:58:13;9.85;;;2.92;;
65328;SDS011;51941;52.210;5.158;2022-07-29T21:00:40;8.30;;;2.88;;
65328;SDS011;51941;52.210;5.158;2022-07-29T21:03:07;8.80;;;2.85;;
65328;SDS011;51941;52.210;5.158;2022-07-29T21:05:35;6.40;;;2.30;;
65328;SDS011;51941;52.210;5.158;2022-07-29T21:08:02;5.70;;;2.33;;
65328;SDS011;51941;52.210;5.158;2022-07-29T21:10:29;6.63;;;2.47;;
65328;SDS011;51941;52.210;5.158;2022-07-29T21:12:56;6.40;;;2.42;;
65328;SDS011;51941;52.210;5.158;2022-07-29T21:15:26;4.27;;;2.20;;
65328;SDS011;51941;52.210;5.158;2022-07-29T21:17:54;5.50;;;2.95;;
65328;SDS011;51941;52.210;5.158;2022-07-29T21:20:26;6.65;;;2.85;;
65328;SDS011;51941;52.210;5.158;2022-07-29T21:22:54;10.18;;;2.55;;
65328;SDS011;51941;52.210;5.158;2022-07-29T21:25:22;7.05;;;2.50;;
65328;SDS011;51941;52.210;5.158;2022-07-29T21:27:50;6.88;;;2.92;;
65328;SDS011;51941;52.210;5.158;2022-07-29T21:30:35;14.95;;;2.97;;
65328;SDS011;51941;52.210;5.158;2022-07-29T21:33:02;9.05;;;3.45;;
65328;SDS011;51941;52.210;5.158;2022-07-29T21:35:30;6.70;;;2.42;;
65328;SDS011;51941;52.210;5.158;2022-07-29T21:37:56;5.60;;;2.40;;
65328;SDS011;51941;52.210;5.158;2022-07-29T21:40:24;8.65;;;3.47;;
65328;SDS011;51941;52.210;5.158;2022-07-29T21:42:54;8.60;;;3.22;;
65328;SDS011;51941;52.210;5.158;2022-07-29T21:45:21;8.32;;;2.95;;
65328;SDS011;51941;52.210;5.158;2022-07-29T21:47:50;3.95;;;2.10;;
65328;SDS011;51941;52.210;5.158;2022-07-29T21:50:16;7.60;;;2.80;;
65328;SDS011;51941;52.210;5.158;2022-07-29T21:52:44;5.97;;;2.72;;
65328;SDS011;51941;52.210;5.158;2022-07-29T21:55:10;7.97;;;2.58;;
65328;SDS011;51941;52.210;5.158;2022-07-29T21:57:38;7.68;;;2.42;;
65328;SDS011;51941;52.210;5.158;2022-07-29T22:00:05;8.05;;;2.30;;
65328;SDS011;51941;52.210;5.158;2022-07-29T22:02:39;6.85;;;2.60;;
65328;SDS011;51941;52.210;5.158;2022-07-29T22:05:08;6.40;;;2.40;;
65328;SDS011;51941;52.210;5.158;2022-07-29T22:07:37;7.95;;;2.65;;
65328;SDS011;51941;52.210;5.158;2022-07-29T22:10:04;9.15;;;2.65;;
65328;SDS011;51941;52.210;5.158;2022-07-29T22:12:32;5.97;;;2.90;;
65328;SDS011;51941;52.210;5.158;2022-07-29T22:14:59;7.65;;;2.50;;
65328;SDS011;51941;52.210;5.158;2022-07-29T22:17:26;5.72;;;2.00;;
65328;SDS011;51941;52.210;5.158;2022-07-29T22:19:53;8.20;;;2.38;;
65328;SDS011;51941;52.210;5.158;2022-07-29T22:22:21;6.63;;;2.53;;
65328;SDS011;51941;52.210;5.158;2022-07-29T22:24:48;10.63;;;2.78;;